Time;durP1;ratioP1;P1;durP2;ratioP2;P2;SDS_P1;SDS_P2;PMS_P1;PMS_P2;Temp;Humidity;BMP_temperature;BMP_pressure;BME280_temperature;BME280_humidity;BME280_pressure;Samples;Min_cycle;Max_cycle;Signal;HPM_P1;HPM_P2
2022/06/01 00:02:11;;;;;;;2.72;2.45;;;;;;;14.86;55.12;96494.16;4938483;29;20496;-79
2022/06/01 00:04:40;;;;;;;5.13;2.20;;;;;;;14.78;55.10;96496.03;4938064;29;20055;-78
2022/06/01 00:09:55;;;;;;;2.10;1.90;;;;;;;14.64;55.10;96502.34;4911163;29;20085;-78
2022/06/01 00:12:23;;;;;;;2.65;2.10;;;;;;;14.60;55.21;96504.56;4914949;29;20080;-77
2022/06/01 00:14:51;;;;;;;1.83;1.73;;;;;;;14.56;55.18;96500.78;4899835;29;20092;-77
2022/06/01 00:17:20;;;;;;;2.75;2.20;;;;;;;14.52;55.06;96506.59;4908197;29;20075;-78
2022/06/01 00:19:48;;;;;;;4.32;2.28;;;;;;;14.42;55.12;96499.97;4934616;29;20111;-78
2022/06/01 05:16:27;;;;;;;12.25;4.15;;;;;;;12.79;65.09;96510.19;5799821;23;20058;-81
2022/06/01 05:18:58;;;;;;;6.95;2.70;;;;;;;12.84;64.52;96502.53;4934026;29;20028;-80
2022/06/01 05:21:26;;;;;;;9.52;2.90;;;;;;;12.91;64.43;96505.16;4939414;29;20048;-79
2022/06/01 05:23:54;;;;;;;7.93;2.78;;;;;;;12.96;64.50;96505.38;4936886;29;20059;-77
2022/06/01 05:26:24;;;;;;;8.80;2.83;;;;;;;13.03;64.24;96500.13;4937611;29;20084;-80
2022/06/01 05:29:00;;;;;;;4.25;2.80;;;;;;;13.08;64.22;96492.50;4938584;29;20060;-82
2022/06/01 05:31:32;;;;;;;5.05;2.97;;;;;;;13.13;63.88;96501.34;5232397;23;20026;-80
2022/06/01 05:34:02;;;;;;;4.22;2.90;;;;;;;13.18;63.67;96498.97;4898140;29;20056;-81
2022/06/01 05:54:22;;;;;;;6.70;2.53;;;;;;;13.69;61.92;96500.19;4954407;29;20027;-80
2022/06/01 06:48:38;;;;;;;5.00;2.45;;;;;;;15.61;56.41;96513.44;6195498;22;1221779;-84
2022/06/01 06:51:06;;;;;;;2.83;1.77;;;;;;;15.74;55.78;96516.97;6166750;23;20024;-82
2022/06/01 06:53:34;;;;;;;3.20;1.90;;;;;;;15.85;54.71;96513.63;6168311;23;20048;-81
2022/06/01 06:56:02;;;;;;;4.95;1.50;;;;;;;15.96;54.23;96512.09;6167868;23;20092;-88
2022/06/01 06:58:30;;;;;;;5.70;1.60;;;;;;;16.08;53.59;96512.22;6156685;23;20018;-80
2022/06/01 07:01:00;;;;;;;4.10;1.95;;;;;;;16.19;53.61;96493.84;6137917;23;20018;-82
2022/06/01 07:53:41;;;;;;;5.03;1.40;;;;;;;18.23;42.69;96496.53;6189516;23;20021;-76
2022/06/01 07:56:08;;;;;;;2.53;1.00;;;;;;;18.29;42.99;96500.88;6186600;23;20056;-75
2022/06/01 07:58:36;;;;;;;3.78;1.30;;;;;;;18.33;42.55;96502.81;6185694;23;20080;-75
2022/06/01 08:01:04;;;;;;;0.90;0.80;;;;;;;18.40;41.60;96505.31;6186148;23;20048;-75
2022/06/01 08:03:31;;;;;;;3.00;1.25;;;;;;;18.46;41.74;96512.31;6186453;23;20017;-75
2022/06/01 14:04:48;;;;;;;1.52;0.80;;;;;;;23.11;26.98;96458.41;6184873;23;20351;-77
2022/06/01 14:07:18;;;;;;;3.45;1.50;;;;;;;23.07;27.46;96457.34;6184501;23;20436;-77
2022/06/01 14:09:51;;;;;;;3.50;0.93;;;;;;;23.03;27.12;96463.22;6184588;23;20025;-77
2022/06/01 14:12:20;;;;;;;2.63;1.10;;;;;;;23.01;27.62;96456.56;6184766;23;20032;-77
2022/06/01 14:14:50;;;;;;;4.65;1.02;;;;;;;22.99;27.79;96459.44;6185369;23;20067;-78
2022/06/01 14:17:21;;;;;;;2.58;1.20;;;;;;;22.98;28.11;96449.06;6184663;23;20017;-78
2022/06/01 14:30:19;;;;;;;4.65;1.23;;;;;;;22.98;27.26;96439.25;6153263;23;20060;-76
2022/06/01 14:32:51;;;;;;;2.15;1.60;;;;;;;22.98;27.42;96447.22;6155139;23;20100;-76
2022/06/01 14:35:19;;;;;;;;;;;;;;;22.99;28.19;96448.00;6155496;23;20018;-76
2022/06/01 14:37:48;;;;;;;0.60;0.60;;;;;;;22.97;27.60;96450.13;6155203;23;19916;-78
2022/06/01 14:40:16;;;;;;;1.20;0.70;;;;;;;22.93;27.82;96447.19;6154587;23;20033;-77
2022/06/01 14:42:43;;;;;;;1.50;1.00;;;;;;;22.94;27.92;96442.69;6155206;23;20049;-77
2022/06/01 14:45:12;;;;;;;0.82;0.73;;;;;;;22.92;27.95;96434.97;6155204;23;20461;-77
2022/06/01 14:47:41;;;;;;;1.40;0.80;;;;;;;22.93;28.12;96431.25;6155090;23;20037;-78
2022/06/01 14:50:09;;;;;;;2.88;1.10;;;;;;;22.92;28.83;96429.66;6154912;23;20076;-78
2022/06/01 14:52:38;;;;;;;1.35;0.70;;;;;;;22.91;28.25;96435.22;6155312;23;20053;-77
2022/06/01 14:55:06;;;;;;;2.97;1.20;;;;;;;22.90;28.82;96434.44;6155331;23;20077;-77
2022/06/01 14:57:34;;;;;;;0.63;0.63;;;;;;;22.89;28.90;96434.69;6157401;23;20104;-77
2022/06/01 15:00:06;;;;;;;1.40;0.80;;;;;;;22.89;28.76;96432.81;6157085;23;20104;-77
2022/06/01 15:02:34;;;;;;;2.50;1.10;;;;;;;22.89;28.22;96435.47;6157726;23;20021;-77
2022/06/01 15:05:04;;;;;;;2.00;0.90;;;;;;;22.89;28.15;96440.00;6167346;23;20017;-77
2022/06/01 15:07:32;;;;;;;1.95;0.60;;;;;;;22.89;28.55;96432.81;6180569;23;20036;-77
2022/06/01 15:10:00;;;;;;;2.83;0.75;;;;;;;22.91;28.75;96428.03;6168955;23;20056;-77
2022/06/01 15:12:27;;;;;;;2.38;0.70;;;;;;;22.91;28.56;96432.56;6161165;23;20049;-77
2022/06/01 15:14:55;;;;;;;2.47;0.80;;;;;;;22.93;28.77;96431.25;6158410;23;20049;-77
2022/06/01 15:17:25;;;;;;;0.75;0.63;;;;;;;22.96;28.76;96422.75;6157380;23;20416;-77
2022/06/01 15:19:55;;;;;;;0.68;0.68;;;;;;;22.98;28.75;96423.28;6157607;23;20049;-77
2022/06/01 15:22:24;;;;;;;1.95;1.08;;;;;;;22.99;28.76;96421.41;6157874;23;20025;-77
2022/06/01 15:24:52;;;;;;;0.70;0.70;;;;;;;23.00;28.99;96420.38;6157107;23;20126;-77
2022/06/01 15:27:22;;;;;;;1.45;0.85;;;;;;;22.99;29.14;96424.06;6157221;23;20393;-77
2022/06/01 15:40:55;;;;;;;0.93;0.70;;;;;;;22.91;29.31;96424.59;6160659;23;20357;-77
2022/06/01 15:43:22;;;;;;;0.90;0.70;;;;;;;22.92;29.34;96431.53;6173897;23;20375;-78
2022/06/01 15:45:52;;;;;;;8.40;0.82;;;;;;;22.93;29.04;96433.91;6174985;23;20462;-78
2022/06/01 15:48:22;;;;;;;2.17;0.80;;;;;;;22.92;29.16;96427.00;6168305;23;20044;-77
2022/06/01 15:50:52;;;;;;;1.35;0.82;;;;;;;22.92;28.77;96428.88;6160471;23;20022;-77
2022/06/01 15:53:21;;;;;;;1.05;0.95;;;;;;;22.93;29.24;96425.13;6129168;23;20021;-77
2022/06/01 15:55:55;;;;;;;2.35;0.88;;;;;;;22.94;29.08;96411.56;6127816;23;20532;-77
2022/06/01 15:58:22;;;;;;;3.22;0.82;;;;;;;22.96;29.37;96409.44;6127995;23;20029;-77
2022/06/01 16:00:50;;;;;;;0.93;0.60;;;;;;;22.98;29.25;96411.81;6128367;23;20057;-77
2022/06/01 16:03:18;;;;;;;2.00;0.90;;;;;;;22.99;29.29;96414.22;6128849;23;20410;-78
2022/06/01 16:05:46;;;;;;;0.60;0.60;;;;;;;23.00;29.55;96421.19;6128094;23;20021;-78
2022/06/01 16:08:14;;;;;;;1.58;0.90;;;;;;;22.99;30.25;96408.91;6127384;23;20053;-77
2022/06/01 16:10:43;;;;;;;2.05;0.68;;;;;;;22.99;30.20;96413.44;6128544;23;20077;-77
2022/06/01 16:13:12;;;;;;;1.00;0.90;;;;;;;22.98;30.87;96423.28;6127688;23;20057;-77
2022/06/01 16:15:44;;;;;;;3.92;1.15;;;;;;;22.98;30.92;96427.78;6126809;23;20065;-78
2022/06/01 16:18:11;;;;;;;2.22;1.13;;;;;;;22.97;30.91;96405.72;6127124;23;20022;-77
2022/06/01 16:20:39;;;;;;;6.55;0.80;;;;;;;22.96;30.68;96416.63;6126572;23;20427;-77
2022/06/01 16:23:07;;;;;;;2.28;1.00;;;;;;;22.93;31.07;96412.63;6127025;23;20416;-77
2022/06/01 16:25:34;;;;;;;2.40;1.13;;;;;;;22.93;31.57;96415.28;6126643;23;20071;-77
2022/06/01 16:28:04;;;;;;;3.90;1.00;;;;;;;22.92;31.58;96420.88;6126786;23;20093;-77
2022/06/01 16:30:32;;;;;;;2.20;0.80;;;;;;;22.88;31.13;96417.94;6126190;23;20100;-78
2022/06/01 16:33:00;;;;;;;2.78;1.52;;;;;;;22.86;31.69;96422.72;6127324;23;20072;-77
2022/06/01 16:35:31;;;;;;;1.48;0.80;;;;;;;22.84;31.48;96419.53;6128154;23;20484;-77
2022/06/01 16:37:59;;;;;;;3.17;0.90;;;;;;;22.82;31.11;96419.78;6128317;23;20030;-77
2022/06/01 16:40:27;;;;;;;3.25;0.90;;;;;;;22.82;31.71;96419.78;6126675;23;20101;-77
2022/06/01 16:42:58;;;;;;;1.27;0.88;;;;;;;22.84;31.56;96427.50;6126135;23;20021;-77
2022/06/01 16:45:31;;;;;;;1.83;0.95;;;;;;;22.83;31.39;96428.59;6128196;23;20054;-77
2022/06/01 16:47:58;;;;;;;2.53;1.48;;;;;;;22.82;31.25;96424.31;6126989;23;20022;-77
2022/06/01 16:50:26;;;;;;;3.08;1.00;;;;;;;22.82;31.29;96432.28;6126589;23;20022;-77
2022/06/01 16:52:54;;;;;;;1.27;0.93;;;;;;;22.81;31.74;96428.84;6126941;23;20033;-77
2022/06/01 16:55:21;;;;;;;2.72;0.90;;;;;;;22.81;31.87;96428.06;6126265;23;20038;-78
2022/06/01 16:57:49;;;;;;;2.67;0.90;;;;;;;22.80;32.06;96426.44;6127165;23;20080;-77
2022/06/01 17:00:19;;;;;;;2.58;1.23;;;;;;;22.78;31.68;96428.56;6126449;23;20026;-78
2022/06/01 17:02:48;;;;;;;2.05;1.10;;;;;;;22.77;31.87;96430.44;6127263;23;20057;-79
2022/06/01 17:05:17;;;;;;;1.92;1.00;;;;;;;22.76;32.33;96430.69;6126814;23;20098;-78
2022/06/01 17:07:45;;;;;;;2.00;1.17;;;;;;;22.72;31.85;96435.75;6126723;23;20021;-77
2022/06/01 17:10:14;;;;;;;1.73;1.35;;;;;;;22.67;32.12;96435.72;6126224;23;20402;-78
2022/06/01 17:12:43;;;;;;;2.67;1.10;;;;;;;22.65;32.79;96437.03;6127025;23;20409;-78
2022/06/01 17:15:13;;;;;;;2.72;1.10;;;;;;;22.59;32.64;96434.38;6126760;23;20402;-77
2022/06/01 17:17:44;;;;;;;2.47;1.15;;;;;;;22.58;33.03;96439.97;6126275;23;20025;-77
2022/06/01 17:20:18;;;;;;;3.67;2.38;;;;;;;22.54;32.65;96434.38;6126697;23;20026;-76
2022/06/01 17:22:45;;;;;;;3.03;1.63;;;;;;;22.50;32.84;96430.66;6126867;23;20064;-76
2022/06/01 17:25:13;;;;;;;2.35;1.48;;;;;;;22.47;33.27;96439.13;6126400;23;20060;-77
2022/06/01 17:27:41;;;;;;;3.83;1.00;;;;;;;22.45;33.09;96433.28;6126477;23;20375;-78
2022/06/01 17:30:09;;;;;;;2.50;1.13;;;;;;;22.42;33.15;96439.13;6125838;23;20473;-76
2022/06/01 17:32:39;;;;;;;1.50;1.23;;;;;;;22.38;33.35;96440.69;6126422;23;20021;-76
2022/06/01 17:35:11;;;;;;;3.08;1.00;;;;;;;22.33;33.07;96448.66;6126803;23;20026;-77
2022/06/01 17:37:39;;;;;;;1.87;1.33;;;;;;;22.28;32.84;96452.09;6127168;23;20104;-78
2022/06/01 17:40:08;;;;;;;1.85;1.10;;;;;;;22.25;33.03;96457.13;6128928;23;20077;-80
2022/06/01 17:42:36;;;;;;;1.15;1.05;;;;;;;22.22;33.52;96453.13;6125791;23;20022;-78
2022/06/01 17:45:05;;;;;;;0.70;0.70;;;;;;;22.19;33.18;96449.13;6126999;23;20401;-78
2022/06/01 17:47:33;;;;;;;2.17;1.33;;;;;;;22.18;33.40;96455.47;6127179;23;20355;-79
2022/06/01 17:50:00;;;;;;;3.42;1.02;;;;;;;22.15;32.93;96458.66;6127188;23;20101;-78
2022/06/01 17:52:28;;;;;;;0.85;0.85;;;;;;;22.14;33.14;96459.69;6126873;23;20105;-78
2022/06/01 17:54:57;;;;;;;1.45;1.10;;;;;;;22.14;33.31;96465.00;6145613;23;20029;-78
2022/06/01 17:57:25;;;;;;;3.38;1.00;;;;;;;22.12;33.52;96469.00;6144857;23;20017;-78
2022/06/01 17:59:53;;;;;;;1.42;1.00;;;;;;;22.09;33.86;96475.63;6128117;23;20022;-78
2022/06/01 18:02:21;;;;;;;1.63;1.10;;;;;;;22.04;33.95;96472.94;6128929;23;20050;-78
2022/06/01 18:04:51;;;;;;;2.67;1.05;;;;;;;22.03;34.02;96481.97;6127078;23;20029;-78
2022/06/01 18:07:19;;;;;;;3.95;1.25;;;;;;;22.00;34.02;96477.97;6121708;23;20030;-78
2022/06/01 18:09:47;;;;;;;1.70;1.00;;;;;;;21.97;34.27;96483.00;6129235;23;20022;-78
2022/06/01 18:12:16;;;;;;;4.10;1.02;;;;;;;21.92;34.11;96489.06;6132204;23;20462;-77
2022/06/01 18:14:44;;;;;;;3.15;0.88;;;;;;;21.87;34.14;96488.25;6128870;23;20107;-78
2022/06/01 18:17:12;;;;;;;0.95;0.75;;;;;;;21.83;33.82;96489.81;6129817;23;20025;-79
2022/06/01 18:19:41;;;;;;;1.73;1.00;;;;;;;21.79;34.03;96486.88;6128123;23;20358;-78
2022/06/01 18:22:09;;;;;;;1.88;1.10;;;;;;;21.77;34.12;96495.09;6127006;23;20025;-78
2022/06/01 18:24:41;;;;;;;2.08;0.70;;;;;;;21.72;34.38;96492.41;6127378;23;20101;-78
2022/06/01 18:27:10;;;;;;;3.70;0.70;;;;;;;21.69;34.33;96498.25;6127140;23;20050;-78
2022/06/01 18:29:39;;;;;;;2.55;1.13;;;;;;;21.66;34.94;96498.72;6127681;23;20049;-77
2022/06/01 18:32:08;;;;;;;2.22;1.00;;;;;;;21.64;34.57;96497.38;6126692;23;20560;-77
2022/06/01 18:34:51;;;;;;;4.78;1.20;;;;;;;21.59;34.76;96498.94;6126043;23;20098;-77
2022/06/01 18:37:19;;;;;;;2.72;1.30;;;;;;;21.56;34.84;96496.81;6143562;23;20056;-80
2022/06/01 18:39:47;;;;;;;2.47;1.00;;;;;;;21.54;35.15;96500.78;6157963;23;20028;-78
2022/06/01 18:42:16;;;;;;;5.13;2.63;;;;;;;21.52;35.08;96505.53;6153656;23;20080;-77
2022/06/01 18:44:45;;;;;;;3.72;1.98;;;;;;;21.49;34.75;96504.16;6153778;23;20350;-76
2022/06/01 18:47:13;;;;;;;3.50;1.67;;;;;;;21.47;35.37;96502.81;6154204;23;20069;-76
2022/06/01 18:49:41;;;;;;;3.00;1.52;;;;;;;21.44;34.94;96501.47;6125102;23;20124;-76
2022/06/01 18:52:10;;;;;;;2.15;1.30;;;;;;;21.42;35.23;96503.59;6132751;23;20076;-76
2022/06/01 18:54:39;;;;;;;1.88;1.20;;;;;;;21.38;35.38;96503.28;6155598;23;20052;-77
2022/06/01 18:57:07;;;;;;;2.70;1.27;;;;;;;21.36;35.58;96501.91;6155465;23;20052;-76
2022/06/01 19:02:26;;;;;;;3.63;1.60;;;;;;;21.29;35.87;96496.81;6073375;23;20407;-77
2022/06/01 19:04:54;;;;;;;2.85;1.25;;;;;;;21.27;35.97;96501.56;6154567;23;20100;-78
2022/06/01 19:07:23;;;;;;;1.92;1.00;;;;;;;21.26;35.58;96509.81;6153787;23;20133;-77
2022/06/01 19:09:51;;;;;;;1.27;1.17;;;;;;;21.24;35.88;96514.56;6153627;23;20073;-77
2022/06/01 19:12:18;;;;;;;1.00;0.90;;;;;;;21.20;35.84;96515.03;6153308;23;20080;-77
2022/06/01 19:14:46;;;;;;;1.52;1.00;;;;;;;21.18;35.87;96516.34;6154154;23;20025;-77
2022/06/01 19:17:18;;;;;;;0.93;0.82;;;;;;;21.16;36.02;96531.72;6154069;23;20064;-77
2022/06/01 19:19:49;;;;;;;0.95;0.88;;;;;;;21.14;36.09;96525.84;6153936;23;20021;-77
2022/06/01 19:22:22;;;;;;;1.95;1.17;;;;;;;21.12;36.22;96533.25;6154771;23;20056;-77
2022/06/01 19:24:50;;;;;;;1.15;1.05;;;;;;;21.10;36.51;96530.88;6156211;23;20021;-77
2022/06/01 19:27:22;;;;;;;1.67;1.23;;;;;;;21.09;36.67;96547.03;6155844;23;20101;-77
2022/06/01 19:30:11;;;;;;;5.20;1.45;;;;;;;21.07;36.68;96543.84;6161520;23;20021;-77
2022/06/01 19:32:39;;;;;;;2.97;1.35;;;;;;;21.04;36.57;96545.13;6177595;23;20025;-77
2022/06/01 19:35:08;;;;;;;3.33;1.48;;;;;;;21.03;36.42;96548.03;6177727;23;20016;-77
2022/06/01 19:45:54;;;;;;;1.23;1.15;;;;;;;20.93;36.41;96565.44;6176169;23;20045;-77
2022/06/01 19:48:21;;;;;;;2.42;1.30;;;;;;;20.91;36.59;96569.38;6176414;23;20188;-77
2022/06/01 19:50:50;;;;;;;1.00;1.00;;;;;;;20.88;36.58;96578.66;6175405;23;20031;-78
2022/06/01 19:53:18;;;;;;;1.50;0.80;;;;;;;20.86;36.71;96575.44;6175141;23;20053;-75
2022/06/01 19:55:47;;;;;;;1.08;0.95;;;;;;;20.83;36.56;96580.44;6176287;23;20025;-79
2022/06/01 19:58:17;;;;;;;2.75;1.20;;;;;;;20.79;37.00;96585.41;6167189;23;20017;-79
2022/06/01 20:00:47;;;;;;;2.20;1.00;;;;;;;20.77;37.12;96595.47;6168362;23;20032;-79
2022/06/01 20:03:16;;;;;;;3.03;1.20;;;;;;;20.71;36.79;96589.31;6160872;23;20088;-79
2022/06/01 20:05:52;;;;;;;2.90;1.38;;;;;;;20.66;37.17;96597.22;6169604;23;20029;-79
2022/06/01 20:08:25;;;;;;;2.10;1.15;;;;;;;20.64;37.40;96607.25;6175988;23;20026;-80
2022/06/01 20:10:52;;;;;;;2.72;1.10;;;;;;;20.59;37.25;96607.16;6167972;23;20457;-78
2022/06/01 20:13:22;;;;;;;1.83;1.20;;;;;;;20.55;37.39;96606.84;6159541;23;20053;-78
2022/06/01 20:15:54;;;;;;;1.02;0.90;;;;;;;20.53;37.62;96610.75;6158685;23;20029;-76
2022/06/01 20:18:24;;;;;;;1.90;0.98;;;;;;;20.50;37.85;96612.06;6158539;23;20021;-76
2022/06/01 20:20:52;;;;;;;3.70;1.38;;;;;;;20.45;37.75;96612.00;6159420;23;20400;-77
2022/06/01 20:23:20;;;;;;;2.50;0.90;;;;;;;20.44;37.80;96613.03;6159735;23;20072;-79
2022/06/01 20:25:53;;;;;;;2.17;1.17;;;;;;;20.40;37.75;96617.22;6160691;23;20041;-77
